Savage Guardian — WDG6079 — position and weather

sailwx.info

Track history (hours):
 
Tides and Currents Weather Stations Pressure Air Temp Water Temp Dewpoint Dewpoint Depression Visibility Wind Speed Wind Dir Waves Ship Positions

Savage Guardian

Owner: Savage Inland Marine, Gibson, LA. More information available from US FCC via Universal Licensing System and Coast Guard Vessel Documentation Center.

Last reported at 2018-Jun-18 05:03 UTC. Time now 2018-Jun-18 15:20 UTC.
Position N 29°36' W 090°58'.

Length 22 m; draft 3 m.

Type: Tug. MMSI: 367553290.

Date/timePositionNaut miles runAvg speedWind from/ knotsBaromVisibWave heightAir tempDewpointWater temp
2018-Jun-18 05:03N 29°36' W 090°58'2 4.6
2018-Jun-18 04:41N 29°34' W 090°57'1 4.8
2018-Jun-18 04:29N 29°34' W 090°56'3 4.9
2018-Jun-18 03:53N 29°32' W 090°53'2 4.9
2018-Jun-18 03:28N 29°32' W 090°51'2 5.4
2018-Jun-18 03:00N 29°32' W 090°48'2 4.0
2018-Jun-18 02:30N 29°33' W 090°45'2 3.6
2018-Jun-18 02:00N 29°34' W 090°44'1 2.6
2018-Jun-18 01:30N 29°35' W 090°43'2 3.3
2018-Jun-18 01:00N 29°36' W 090°43'1 2.7
2018-Jun-18 00:30N 29°36' W 090°41'2 3.4
2018-Jun-18 00:00N 29°36' W 090°39'2 4.2
2018-Jun-17 23:30N 29°35' W 090°37'2 4.4
2018-Jun-17 22:59N 29°34' W 090°34'11 0.2
2018-Jun-15 21:32N 29°36' W 090°22'0 6.2
2018-Jun-15 21:30N 29°36' W 090°22'3 5.6
2018-Jun-15 21:00N 29°33' W 090°24'3 5.4
2018-Jun-15 20:30N 29°33' W 090°27'4 6.4
2018-Jun-15 19:55N 29°34' W 090°31'3 6.2
2018-Jun-15 19:30N 29°34' W 090°34'3 5.9
2018-Jun-15 19:00N 29°35' W 090°37'1 1.9
2018-Jun-15 18:30N 29°35' W 090°38'2 4.2
2018-Jun-15 18:00N 29°36' W 090°40'1 1.8
2018-Jun-15 17:30N 29°36' W 090°41'2 3.8
2018-Jun-15 17:00N 29°35' W 090°43'2 4.4
2018-Jun-15 16:30N 29°34' W 090°45'3 6.5
2018-Jun-15 16:00N 29°32' W 090°48'62 3.9
2018-Jun-15 00:19N 29°51' W 091°56'2 7.2
2018-Jun-15 00:00N 29°50' W 091°58'4 7.4
2018-Jun-14 23:29N 29°49' W 092°03'3 6.9
2018-Jun-14 23:00N 29°48' W 092°06'3 6.2
2018-Jun-14 22:30N 29°47' W 092°10'2 4.7
2018-Jun-14 22:00N 29°47' W 092°12'1 2.4
2018-Jun-14 21:30N 29°48' W 092°14'0 0.3
2018-Jun-14 21:00N 29°48' W 092°14'1 1.0
2018-Jun-14 20:30N 29°48' W 092°14'0 0.9
2018-Jun-14 20:00N 29°48' W 092°15'3 6.2
2018-Jun-14 19:30N 29°50' W 092°18'3 5.7
2018-Jun-14 19:00N 29°51' W 092°21'36 5.8
2018-Jun-14 12:47N 29°56' W 093°02'2 5.1
2018-Jun-14 12:28N 29°56' W 093°04'3 6.0
2018-Jun-14 12:00N 29°56' W 093°07'3 5.5
2018-Jun-14 11:30N 29°56' W 093°10'2 4.7
2018-Jun-14 11:00N 29°58' W 093°12'2 4.2
2018-Jun-14 10:30N 29°60' W 093°13'2 4.9
2018-Jun-14 10:00N 30°02' W 093°15'2 4.3
2018-Jun-14 09:29N 30°04' W 093°16'2 4.1
2018-Jun-14 09:00N 30°05' W 093°18'1 2.5
2018-Jun-14 08:30N 30°06' W 093°18'0 0.6
2018-Jun-14 08:00N 30°06' W 093°18'0 0.0
2018-Jun-14 07:30N 30°06' W 093°18'0 0.0
2018-Jun-14 07:00N 30°06' W 093°18'0 0.0
2018-Jun-14 06:30N 30°06' W 093°18'0 0.0
2018-Jun-14 06:00N 30°06' W 093°18'0 0.0
2018-Jun-14 05:30N 30°06' W 093°18'0 0.0
2018-Jun-14 05:00N 30°06' W 093°18'0 0.0
2018-Jun-14 04:30N 30°06' W 093°18'0 0.0
2018-Jun-14 04:00N 30°06' W 093°18'0 0.0
2018-Jun-14 03:30N 30°06' W 093°18'0 0.0
2018-Jun-14 03:00N 30°06' W 093°18'0 0.0
2018-Jun-14 02:30N 30°06' W 093°18'0 0.0
2018-Jun-14 02:00N 30°06' W 093°18'0 0.0
2018-Jun-14 01:30N 30°06' W 093°18'0 0.0
2018-Jun-14 01:00N 30°06' W 093°18'0 0.0
2018-Jun-14 00:30N 30°06' W 093°18'0 0.0
2018-Jun-14 00:00N 30°06' W 093°18'0 0.0
2018-Jun-13 23:30N 30°06' W 093°18'0 0.0
2018-Jun-13 23:01N 30°06' W 093°18'0 0.0
2018-Jun-13 22:30N 30°06' W 093°18'0 0.0
2018-Jun-13 22:00N 30°06' W 093°18'0 0.0
2018-Jun-13 21:31N 30°06' W 093°18'0 0.0
2018-Jun-13 21:00N 30°06' W 093°18'0 0.0
2018-Jun-13 20:30N 30°06' W 093°18'0 0.0
2018-Jun-13 20:00N 30°06' W 093°18'0 0.0
2018-Jun-13 19:31N 30°06' W 093°18'0 0.0
2018-Jun-13 19:01N 30°06' W 093°18'0 0.0
2018-Jun-13 18:30N 30°06' W 093°18'0 0.0
2018-Jun-13 18:00N 30°06' W 093°18'0 0.0
2018-Jun-13 17:31N 30°06' W 093°18'0 0.0
2018-Jun-13 17:00N 30°06' W 093°18'0 0.0
2018-Jun-13 16:30N 30°06' W 093°18'0 0.1
2018-Jun-13 16:00N 30°06' W 093°18'0 0.0
2018-Jun-13 15:31N 30°06' W 093°18'0 0.1
2018-Jun-13 15:00N 30°06' W 093°18'0 0.0
2018-Jun-13 14:30N 30°06' W 093°18'0 0.0
2018-Jun-13 14:00N 30°06' W 093°18'0 0.0
2018-Jun-13 13:27N 30°06' W 093°18'0 0.0
2018-Jun-13 13:00N 30°06' W 093°18'0 0.0
2018-Jun-13 12:31N 30°06' W 093°18'0 0.0
2018-Jun-13 12:00N 30°06' W 093°18'0 0.0
2018-Jun-13 11:30N 30°06' W 093°18'0 0.0
2018-Jun-13 11:00N 30°06' W 093°18'0 0.0
2018-Jun-13 10:30N 30°06' W 093°18'0 0.0
2018-Jun-13 10:00N 30°06' W 093°18'0 0.0
2018-Jun-13 09:30N 30°06' W 093°18'0 0.0
2018-Jun-13 09:00N 30°06' W 093°18'0 0.0
2018-Jun-13 08:31N 30°06' W 093°18'0 0.0
2018-Jun-13 08:01N 30°06' W 093°18'0 0.0
2018-Jun-13 07:31N 30°06' W 093°18'0 0.0
2018-Jun-13 07:01N 30°06' W 093°18'0 0.0
2018-Jun-13 06:30N 30°06' W 093°18'1 2.0
2018-Jun-13 06:00N 30°06' W 093°19'2 3.8
2018-Jun-13 05:30N 30°04' W 093°20'0 0.5
2018-Jun-13 05:00N 30°04' W 093°21'2 3.3
2018-Jun-13 04:30N 30°06' W 093°20'3 5.4
2018-Jun-13 04:00N 30°08' W 093°19'0 0.2
2018-Jun-13 03:29N 30°08' W 093°19'0 0.0
2018-Jun-13 03:01N 30°08' W 093°19'0 0.0
2018-Jun-13 02:29N 30°08' W 093°19'0 0.0
2018-Jun-13 02:01N 30°08' W 093°19'0 0.0
2018-Jun-13 01:30N 30°08' W 093°19'0 0.0
2018-Jun-13 01:00N 30°08' W 093°19'0 0.0
2018-Jun-13 00:30N 30°08' W 093°19'0 0.0
2018-Jun-13 00:00N 30°08' W 093°19'0 0.0
2018-Jun-12 23:30N 30°08' W 093°19'0 0.0
2018-Jun-12 23:00N 30°08' W 093°19'0 0.0
2018-Jun-12 22:31N 30°08' W 093°19'0 0.0
2018-Jun-12 22:01N 30°08' W 093°19'0 0.0
2018-Jun-12 21:30N 30°08' W 093°19'0 0.0
2018-Jun-12 21:01N 30°08' W 093°19'0 0.0
2018-Jun-12 20:31N 30°08' W 093°19'0 0.0
2018-Jun-12 20:01N 30°08' W 093°19'0 0.0
2018-Jun-12 19:30N 30°08' W 093°19'0 0.0
2018-Jun-12 19:00N 30°08' W 093°19'0 0.0
2018-Jun-12 18:30N 30°08' W 093°19'0 0.0
2018-Jun-12 18:00N 30°08' W 093°19'0 0.0
2018-Jun-12 17:31N 30°08' W 093°19'0 0.0
2018-Jun-12 17:00N 30°08' W 093°19'0 0.0
2018-Jun-12 16:30N 30°08' W 093°19'0 0.0
2018-Jun-12 16:01N 30°08' W 093°19'0 0.0
2018-Jun-12 15:30N 30°08' W 093°19'0 0.0
2018-Jun-12 15:00N 30°08' W 093°19'0 0.0
2018-Jun-12 14:30N 30°08' W 093°19'0 0.0
2018-Jun-12 14:00N 30°08' W 093°19'0 0.0
2018-Jun-12 13:30N 30°08' W 093°19'0 0.0
2018-Jun-12 13:00N 30°08' W 093°19'0 0.0
2018-Jun-12 12:30N 30°08' W 093°19'0 0.0
2018-Jun-12 11:57N 30°08' W 093°19'0 0.1
2018-Jun-12 11:30N 30°08' W 093°19'0 0.2
2018-Jun-12 11:00N 30°08' W 093°19'0 0.1
2018-Jun-12 10:29N 30°08' W 093°19'0 0.2
2018-Jun-12 10:00N 30°08' W 093°19'2 4.5
2018-Jun-12 09:30N 30°06' W 093°20'1 2.1
2018-Jun-12 09:00N 30°05' W 093°20'0 0.1
2018-Jun-12 08:30N 30°05' W 093°20'0 0.1
2018-Jun-12 08:00N 30°05' W 093°20'0 0.1
2018-Jun-12 07:30N 30°05' W 093°20'0 0.0
2018-Jun-12 07:00N 30°05' W 093°20'0 0.3
2018-Jun-12 06:29N 30°05' W 093°20'0 0.0
2018-Jun-12 05:59N 30°05' W 093°20'0 0.0
2018-Jun-12 05:31N 30°05' W 093°20'0 0.0
2018-Jun-12 05:00N 30°05' W 093°20'0 0.0
2018-Jun-12 04:25N 30°05' W 093°20'0 0.0
2018-Jun-12 03:56N 30°05' W 093°20'0 0.0
2018-Jun-12 03:29N 30°05' W 093°20'0 0.0
2018-Jun-12 02:55N 30°05' W 093°20'0 0.0
2018-Jun-12 02:30N 30°05' W 093°20'0 0.0
2018-Jun-12 01:54N 30°05' W 093°20'0 0.0
2018-Jun-12 01:31N 30°05' W 093°20'0 0.0
2018-Jun-12 00:57N 30°05' W 093°20'0 0.0
2018-Jun-12 00:28N 30°05' W 093°20'0 0.0
2018-Jun-12 00:00N 30°05' W 093°20'0 0.0
2018-Jun-11 23:30N 30°05' W 093°20'0 0.0
2018-Jun-11 23:00N 30°05' W 093°20'0 0.0
2018-Jun-11 22:30N 30°05' W 093°20'0 0.0
2018-Jun-11 22:00N 30°05' W 093°20'0 0.0
2018-Jun-11 21:26N 30°05' W 093°20'0 0.0
2018-Jun-11 21:00N 30°05' W 093°20'0 0.0
2018-Jun-11 20:30N 30°05' W 093°20'0 0.0
2018-Jun-11 19:58N 30°05' W 093°20'0 0.0
2018-Jun-11 19:29N 30°05' W 093°20'0 0.1
2018-Jun-11 19:01N 30°05' W 093°20'0 0.5
2018-Jun-11 18:30N 30°05' W 093°20'0 0.6
2018-Jun-11 18:00N 30°05' W 093°20'0 0.0
2018-Jun-11 17:30N 30°05' W 093°20'0 0.6
2018-Jun-11 17:01N 30°05' W 093°20'0 0.0
2018-Jun-11 16:31N 30°05' W 093°20'0 0.0
2018-Jun-11 16:01N 30°05' W 093°20'0 0.0
2018-Jun-11 15:30N 30°05' W 093°20'0 0.0
2018-Jun-11 15:00N 30°05' W 093°20'0 0.0
2018-Jun-11 14:30N 30°05' W 093°20'0 0.0
2018-Jun-11 14:01N 30°05' W 093°20'0 0.0
2018-Jun-11 13:31N 30°05' W 093°20'0 0.0
2018-Jun-11 12:59N 30°05' W 093°20'0 0.0
2018-Jun-11 12:30N 30°05' W 093°20'0 0.0
2018-Jun-11 12:00N 30°05' W 093°20'0 0.0
2018-Jun-11 11:30N 30°05' W 093°20'0 0.0
2018-Jun-11 11:00N 30°05' W 093°20'0 0.0
2018-Jun-11 10:30N 30°05' W 093°20'0 0.0
2018-Jun-11 09:59N 30°05' W 093°20'0 0.0
2018-Jun-11 09:30N 30°05' W 093°20'0 0.0
2018-Jun-11 09:00N 30°05' W 093°20'0 0.0
2018-Jun-11 08:30N 30°05' W 093°20'0 0.0
2018-Jun-11 08:01N 30°05' W 093°20'0 0.7
2018-Jun-11 07:30N 30°05' W 093°20'0 0.1
2018-Jun-11 07:00N 30°05' W 093°20'1 1.4
2018-Jun-11 06:30N 30°05' W 093°20'1 1.3
2018-Jun-11 06:01N 30°06' W 093°19'0 0.3
2018-Jun-11 05:30N 30°06' W 093°19'0 0.2
2018-Jun-11 05:00N 30°06' W 093°19'0 0.0
2018-Jun-11 04:30N 30°06' W 093°19'0 0.0
2018-Jun-11 04:00N 30°06' W 093°19'0 0.0
2018-Jun-11 03:31N 30°06' W 093°19'0 0.2
2018-Jun-11 03:00N 30°06' W 093°19'0 0.8
2018-Jun-11 02:31N 30°06' W 093°20'1 1.9
2018-Jun-11 02:00N 30°06' W 093°19'1 2.8
2018-Jun-11 01:30N 30°05' W 093°17'1 1.4
2018-Jun-11 01:00N 30°05' W 093°17'1 1.8
2018-Jun-11 00:30N 30°04' W 093°16'0 0.0
2018-Jun-11 00:00N 30°04' W 093°16'0 0.0
2018-Jun-10 23:30N 30°04' W 093°16'0 0.0
2018-Jun-10 23:00N 30°04' W 093°16'0 0.0
2018-Jun-10 22:30N 30°04' W 093°16'0 0.1
2018-Jun-10 21:57N 30°04' W 093°16'0 0.0
2018-Jun-10 21:30N 30°04' W 093°16'0 0.1
2018-Jun-10 21:00N 30°04' W 093°16'0 0.0
2018-Jun-10 20:30N 30°04' W 093°16'0 0.0
2018-Jun-10 20:00N 30°04' W 093°16'0 0.0
2018-Jun-10 19:30N 30°04' W 093°16'0 0.0
2018-Jun-10 19:00N 30°04' W 093°16'0 0.0
2018-Jun-10 18:30N 30°04' W 093°16'0 0.0
2018-Jun-10 18:00N 30°04' W 093°16'0 0.0
2018-Jun-10 17:31N 30°04' W 093°16'0 0.0
2018-Jun-10 17:00N 30°04' W 093°16'0 0.0
2018-Jun-10 16:30N 30°04' W 093°16'0 0.0
2018-Jun-10 16:00N 30°04' W 093°16'1 1.9
2018-Jun-10 15:30N 30°03' W 093°16'0 0.2
2018-Jun-10 15:00N 30°03' W 093°16'0 0.4
2018-Jun-10 14:00N 30°03' W 093°16'1 2.0
2018-Jun-10 13:30N 30°02' W 093°15'1 2.6
2018-Jun-10 13:00N 30°01' W 093°14'2 3.2
2018-Jun-10 12:30N 29°60' W 093°13'1 2.5
2018-Jun-10 11:55N 29°58' W 093°12'0 0.7
2018-Jun-10 11:30N 29°58' W 093°12'1 2.4
2018-Jun-10 10:59N 29°57' W 093°11'1 1.8
2018-Jun-10 10:30N 29°57' W 093°10'0 0.3
2018-Jun-10 09:57N 29°56' W 093°10'0 0.3
2018-Jun-10 09:29N 29°56' W 093°10'0 0.1
2018-Jun-10 08:54N 29°56' W 093°10'0 0.0
2018-Jun-10 06:36N 29°56' W 093°10'0 0.3
2018-Jun-10 06:30N 29°56' W 093°10'0 0.4
2018-Jun-10 05:59N 29°56' W 093°10'1 1.3
2018-Jun-10 05:30N 29°56' W 093°09'0 0.0
2018-Jun-10 05:00N 29°56' W 093°09'1 2.0
2018-Jun-10 04:30N 29°56' W 093°08'2 3.3
2018-Jun-10 04:00N 29°56' W 093°06'2 4.1
2018-Jun-10 03:28N 29°56' W 093°03'32 2.5
2018-Jun-09 14:50N 29°53' W 092°27'2 4.7
2018-Jun-09 14:30N 29°53' W 092°25'2 4.5
2018-Jun-09 13:58N 29°52' W 092°22'2 4.1
2018-Jun-09 13:30N 29°51' W 092°21'2 4.6
2018-Jun-09 13:00N 29°50' W 092°18'2 4.5
2018-Jun-09 12:30N 29°49' W 092°16'2 5.1
2018-Jun-09 12:00N 29°48' W 092°14'1 2.8
2018-Jun-09 11:30N 29°47' W 092°12'1 2.4
2018-Jun-09 11:00N 29°47' W 092°11'0 0.0
2018-Jun-09 10:30N 29°47' W 092°11'1 1.4
2018-Jun-09 10:00N 29°47' W 092°10'2 5.0
2018-Jun-09 09:30N 29°47' W 092°07'2 4.6
2018-Jun-09 09:00N 29°48' W 092°05'2 4.7
2018-Jun-09 08:30N 29°49' W 092°02'  
Track history (hours):
 
Tides and Currents Weather Stations Pressure Air Temp Water Temp Dewpoint Dewpoint Depression Visibility Wind Speed Wind Dir Waves Ship Positions

Savage Guardian

Owner: Savage Inland Marine, Gibson, LA. More information available from US FCC via Universal Licensing System and Coast Guard Vessel Documentation Center.

Last reported at 2018-Jun-18 05:03 UTC. Time now 2018-Jun-18 15:20 UTC.
Position N 29°36' W 090°58'.

Length 22 m; draft 3 m.

Type: Tug. MMSI: 367553290.

Date/timePositionNaut miles runAvg speedWind from/ knotsBaromVisibWave heightAir tempDewpointWater temp
2018-Jun-18 05:03N 29°36' W 090°58'2 4.6
2018-Jun-18 04:41N 29°34' W 090°57'1 4.8
2018-Jun-18 04:29N 29°34' W 090°56'3 4.9
2018-Jun-18 03:53N 29°32' W 090°53'2 4.9
2018-Jun-18 03:28N 29°32' W 090°51'2 5.4
2018-Jun-18 03:00N 29°32' W 090°48'2 4.0
2018-Jun-18 02:30N 29°33' W 090°45'2 3.6
2018-Jun-18 02:00N 29°34' W 090°44'1 2.6
2018-Jun-18 01:30N 29°35' W 090°43'2 3.3
2018-Jun-18 01:00N 29°36' W 090°43'1 2.7
2018-Jun-18 00:30N 29°36' W 090°41'2 3.4
2018-Jun-18 00:00N 29°36' W 090°39'2 4.2
2018-Jun-17 23:30N 29°35' W 090°37'2 4.4
2018-Jun-17 22:59N 29°34' W 090°34'11 0.2
2018-Jun-15 21:32N 29°36' W 090°22'0 6.2
2018-Jun-15 21:30N 29°36' W 090°22'3 5.6
2018-Jun-15 21:00N 29°33' W 090°24'3 5.4
2018-Jun-15 20:30N 29°33' W 090°27'4 6.4
2018-Jun-15 19:55N 29°34' W 090°31'3 6.2
2018-Jun-15 19:30N 29°34' W 090°34'3 5.9
2018-Jun-15 19:00N 29°35' W 090°37'1 1.9
2018-Jun-15 18:30N 29°35' W 090°38'2 4.2
2018-Jun-15 18:00N 29°36' W 090°40'1 1.8
2018-Jun-15 17:30N 29°36' W 090°41'2 3.8
2018-Jun-15 17:00N 29°35' W 090°43'2 4.4
2018-Jun-15 16:30N 29°34' W 090°45'3 6.5
2018-Jun-15 16:00N 29°32' W 090°48'62 3.9
2018-Jun-15 00:19N 29°51' W 091°56'2 7.2
2018-Jun-15 00:00N 29°50' W 091°58'4 7.4
2018-Jun-14 23:29N 29°49' W 092°03'3 6.9
2018-Jun-14 23:00N 29°48' W 092°06'3 6.2
2018-Jun-14 22:30N 29°47' W 092°10'2 4.7
2018-Jun-14 22:00N 29°47' W 092°12'1 2.4
2018-Jun-14 21:30N 29°48' W 092°14'0 0.3
2018-Jun-14 21:00N 29°48' W 092°14'1 1.0
2018-Jun-14 20:30N 29°48' W 092°14'0 0.9
2018-Jun-14 20:00N 29°48' W 092°15'3 6.2
2018-Jun-14 19:30N 29°50' W 092°18'3 5.7
2018-Jun-14 19:00N 29°51' W 092°21'36 5.8
2018-Jun-14 12:47N 29°56' W 093°02'2 5.1
2018-Jun-14 12:28N 29°56' W 093°04'3 6.0
2018-Jun-14 12:00N 29°56' W 093°07'3 5.5
2018-Jun-14 11:30N 29°56' W 093°10'2 4.7
2018-Jun-14 11:00N 29°58' W 093°12'2 4.2
2018-Jun-14 10:30N 29°60' W 093°13'2 4.9
2018-Jun-14 10:00N 30°02' W 093°15'2 4.3
2018-Jun-14 09:29N 30°04' W 093°16'2 4.1
2018-Jun-14 09:00N 30°05' W 093°18'1 2.5
2018-Jun-14 08:30N 30°06' W 093°18'0 0.6
2018-Jun-14 08:00N 30°06' W 093°18'0 0.0
2018-Jun-14 07:30N 30°06' W 093°18'0 0.0
2018-Jun-14 07:00N 30°06' W 093°18'0 0.0
2018-Jun-14 06:30N 30°06' W 093°18'0 0.0
2018-Jun-14 06:00N 30°06' W 093°18'0 0.0
2018-Jun-14 05:30N 30°06' W 093°18'0 0.0
2018-Jun-14 05:00N 30°06' W 093°18'0 0.0
2018-Jun-14 04:30N 30°06' W 093°18'0 0.0
2018-Jun-14 04:00N 30°06' W 093°18'0 0.0
2018-Jun-14 03:30N 30°06' W 093°18'0 0.0
2018-Jun-14 03:00N 30°06' W 093°18'0 0.0
2018-Jun-14 02:30N 30°06' W 093°18'0 0.0
2018-Jun-14 02:00N 30°06' W 093°18'0 0.0
2018-Jun-14 01:30N 30°06' W 093°18'0 0.0
2018-Jun-14 01:00N 30°06' W 093°18'0 0.0
2018-Jun-14 00:30N 30°06' W 093°18'0 0.0
2018-Jun-14 00:00N 30°06' W 093°18'0 0.0
2018-Jun-13 23:30N 30°06' W 093°18'0 0.0
2018-Jun-13 23:01N 30°06' W 093°18'0 0.0
2018-Jun-13 22:30N 30°06' W 093°18'0 0.0
2018-Jun-13 22:00N 30°06' W 093°18'0 0.0
2018-Jun-13 21:31N 30°06' W 093°18'0 0.0
2018-Jun-13 21:00N 30°06' W 093°18'0 0.0
2018-Jun-13 20:30N 30°06' W 093°18'0 0.0
2018-Jun-13 20:00N 30°06' W 093°18'0 0.0
2018-Jun-13 19:31N 30°06' W 093°18'0 0.0
2018-Jun-13 19:01N 30°06' W 093°18'0 0.0
2018-Jun-13 18:30N 30°06' W 093°18'0 0.0
2018-Jun-13 18:00N 30°06' W 093°18'0 0.0
2018-Jun-13 17:31N 30°06' W 093°18'0 0.0
2018-Jun-13 17:00N 30°06' W 093°18'0 0.0
2018-Jun-13 16:30N 30°06' W 093°18'0 0.1
2018-Jun-13 16:00N 30°06' W 093°18'0 0.0
2018-Jun-13 15:31N 30°06' W 093°18'0 0.1
2018-Jun-13 15:00N 30°06' W 093°18'0 0.0
2018-Jun-13 14:30N 30°06' W 093°18'0 0.0
2018-Jun-13 14:00N 30°06' W 093°18'0 0.0
2018-Jun-13 13:27N 30°06' W 093°18'0 0.0
2018-Jun-13 13:00N 30°06' W 093°18'0 0.0
2018-Jun-13 12:31N 30°06' W 093°18'0 0.0
2018-Jun-13 12:00N 30°06' W 093°18'0 0.0
2018-Jun-13 11:30N 30°06' W 093°18'0 0.0
2018-Jun-13 11:00N 30°06' W 093°18'0 0.0
2018-Jun-13 10:30N 30°06' W 093°18'0 0.0
2018-Jun-13 10:00N 30°06' W 093°18'0 0.0
2018-Jun-13 09:30N 30°06' W 093°18'0 0.0
2018-Jun-13 09:00N 30°06' W 093°18'0 0.0
2018-Jun-13 08:31N 30°06' W 093°18'0 0.0
2018-Jun-13 08:01N 30°06' W 093°18'0 0.0
2018-Jun-13 07:31N 30°06' W 093°18'0 0.0
2018-Jun-13 07:01N 30°06' W 093°18'0 0.0
2018-Jun-13 06:30N 30°06' W 093°18'1 2.0
2018-Jun-13 06:00N 30°06' W 093°19'2 3.8
2018-Jun-13 05:30N 30°04' W 093°20'0 0.5
2018-Jun-13 05:00N 30°04' W 093°21'2 3.3
2018-Jun-13 04:30N 30°06' W 093°20'3 5.4
2018-Jun-13 04:00N 30°08' W 093°19'0 0.2
2018-Jun-13 03:29N 30°08' W 093°19'0 0.0
2018-Jun-13 03:01N 30°08' W 093°19'0 0.0
2018-Jun-13 02:29N 30°08' W 093°19'0 0.0
2018-Jun-13 02:01N 30°08' W 093°19'0 0.0
2018-Jun-13 01:30N 30°08' W 093°19'0 0.0
2018-Jun-13 01:00N 30°08' W 093°19'0 0.0
2018-Jun-13 00:30N 30°08' W 093°19'0 0.0
2018-Jun-13 00:00N 30°08' W 093°19'0 0.0
2018-Jun-12 23:30N 30°08' W 093°19'0 0.0
2018-Jun-12 23:00N 30°08' W 093°19'0 0.0
2018-Jun-12 22:31N 30°08' W 093°19'0 0.0
2018-Jun-12 22:01N 30°08' W 093°19'0 0.0
2018-Jun-12 21:30N 30°08' W 093°19'0 0.0
2018-Jun-12 21:01N 30°08' W 093°19'0 0.0
2018-Jun-12 20:31N 30°08' W 093°19'0 0.0
2018-Jun-12 20:01N 30°08' W 093°19'0 0.0
2018-Jun-12 19:30N 30°08' W 093°19'0 0.0
2018-Jun-12 19:00N 30°08' W 093°19'0 0.0
2018-Jun-12 18:30N 30°08' W 093°19'0 0.0
2018-Jun-12 18:00N 30°08' W 093°19'0 0.0
2018-Jun-12 17:31N 30°08' W 093°19'0 0.0
2018-Jun-12 17:00N 30°08' W 093°19'0 0.0
2018-Jun-12 16:30N 30°08' W 093°19'0 0.0
2018-Jun-12 16:01N 30°08' W 093°19'0 0.0
2018-Jun-12 15:30N 30°08' W 093°19'0 0.0
2018-Jun-12 15:00N 30°08' W 093°19'0 0.0
2018-Jun-12 14:30N 30°08' W 093°19'0 0.0
2018-Jun-12 14:00N 30°08' W 093°19'0 0.0
2018-Jun-12 13:30N 30°08' W 093°19'0 0.0
2018-Jun-12 13:00N 30°08' W 093°19'0 0.0
2018-Jun-12 12:30N 30°08' W 093°19'0 0.0
2018-Jun-12 11:57N 30°08' W 093°19'0 0.1
2018-Jun-12 11:30N 30°08' W 093°19'0 0.2
2018-Jun-12 11:00N 30°08' W 093°19'0 0.1
2018-Jun-12 10:29N 30°08' W 093°19'0 0.2
2018-Jun-12 10:00N 30°08' W 093°19'2 4.5
2018-Jun-12 09:30N 30°06' W 093°20'1 2.1
2018-Jun-12 09:00N 30°05' W 093°20'0 0.1
2018-Jun-12 08:30N 30°05' W 093°20'0 0.1
2018-Jun-12 08:00N 30°05' W 093°20'0 0.1
2018-Jun-12 07:30N 30°05' W 093°20'0 0.0
2018-Jun-12 07:00N 30°05' W 093°20'0 0.3
2018-Jun-12 06:29N 30°05' W 093°20'0 0.0
2018-Jun-12 05:59N 30°05' W 093°20'0 0.0
2018-Jun-12 05:31N 30°05' W 093°20'0 0.0
2018-Jun-12 05:00N 30°05' W 093°20'0 0.0
2018-Jun-12 04:25N 30°05' W 093°20'0 0.0
2018-Jun-12 03:56N 30°05' W 093°20'0 0.0
2018-Jun-12 03:29N 30°05' W 093°20'0 0.0
2018-Jun-12 02:55N 30°05' W 093°20'0 0.0
2018-Jun-12 02:30N 30°05' W 093°20'0 0.0
2018-Jun-12 01:54N 30°05' W 093°20'0 0.0
2018-Jun-12 01:31N 30°05' W 093°20'0 0.0
2018-Jun-12 00:57N 30°05' W 093°20'0 0.0
2018-Jun-12 00:28N 30°05' W 093°20'0 0.0
2018-Jun-12 00:00N 30°05' W 093°20'0 0.0
2018-Jun-11 23:30N 30°05' W 093°20'0 0.0
2018-Jun-11 23:00N 30°05' W 093°20'0 0.0
2018-Jun-11 22:30N 30°05' W 093°20'0 0.0
2018-Jun-11 22:00N 30°05' W 093°20'0 0.0
2018-Jun-11 21:26N 30°05' W 093°20'0 0.0
2018-Jun-11 21:00N 30°05' W 093°20'0 0.0
2018-Jun-11 20:30N 30°05' W 093°20'0 0.0
2018-Jun-11 19:58N 30°05' W 093°20'0 0.0
2018-Jun-11 19:29N 30°05' W 093°20'0 0.1
2018-Jun-11 19:01N 30°05' W 093°20'0 0.5
2018-Jun-11 18:30N 30°05' W 093°20'0 0.6
2018-Jun-11 18:00N 30°05' W 093°20'0 0.0
2018-Jun-11 17:30N 30°05' W 093°20'0 0.6
2018-Jun-11 17:01N 30°05' W 093°20'0 0.0
2018-Jun-11 16:31N 30°05' W 093°20'0 0.0
2018-Jun-11 16:01N 30°05' W 093°20'0 0.0
2018-Jun-11 15:30N 30°05' W 093°20'0 0.0
2018-Jun-11 15:00N 30°05' W 093°20'0 0.0
2018-Jun-11 14:30N 30°05' W 093°20'0 0.0
2018-Jun-11 14:01N 30°05' W 093°20'0 0.0
2018-Jun-11 13:31N 30°05' W 093°20'0 0.0
2018-Jun-11 12:59N 30°05' W 093°20'0 0.0
2018-Jun-11 12:30N 30°05' W 093°20'0 0.0
2018-Jun-11 12:00N 30°05' W 093°20'0 0.0
2018-Jun-11 11:30N 30°05' W 093°20'0 0.0
2018-Jun-11 11:00N 30°05' W 093°20'0 0.0
2018-Jun-11 10:30N 30°05' W 093°20'0 0.0
2018-Jun-11 09:59N 30°05' W 093°20'0 0.0
2018-Jun-11 09:30N 30°05' W 093°20'0 0.0
2018-Jun-11 09:00N 30°05' W 093°20'0 0.0
2018-Jun-11 08:30N 30°05' W 093°20'0 0.0
2018-Jun-11 08:01N 30°05' W 093°20'0 0.7
2018-Jun-11 07:30N 30°05' W 093°20'0 0.1
2018-Jun-11 07:00N 30°05' W 093°20'1 1.4
2018-Jun-11 06:30N 30°05' W 093°20'1 1.3
2018-Jun-11 06:01N 30°06' W 093°19'0 0.3
2018-Jun-11 05:30N 30°06' W 093°19'0 0.2
2018-Jun-11 05:00N 30°06' W 093°19'0 0.0
2018-Jun-11 04:30N 30°06' W 093°19'0 0.0
2018-Jun-11 04:00N 30°06' W 093°19'0 0.0
2018-Jun-11 03:31N 30°06' W 093°19'0 0.2
2018-Jun-11 03:00N 30°06' W 093°19'0 0.8
2018-Jun-11 02:31N 30°06' W 093°20'1 1.9
2018-Jun-11 02:00N 30°06' W 093°19'1 2.8
2018-Jun-11 01:30N 30°05' W 093°17'1 1.4
2018-Jun-11 01:00N 30°05' W 093°17'1 1.8
2018-Jun-11 00:30N 30°04' W 093°16'0 0.0
2018-Jun-11 00:00N 30°04' W 093°16'0 0.0
2018-Jun-10 23:30N 30°04' W 093°16'0 0.0
2018-Jun-10 23:00N 30°04' W 093°16'0 0.0
2018-Jun-10 22:30N 30°04' W 093°16'0 0.1
2018-Jun-10 21:57N 30°04' W 093°16'0 0.0
2018-Jun-10 21:30N 30°04' W 093°16'0 0.1
2018-Jun-10 21:00N 30°04' W 093°16'0 0.0
2018-Jun-10 20:30N 30°04' W 093°16'0 0.0
2018-Jun-10 20:00N 30°04' W 093°16'0 0.0
2018-Jun-10 19:30N 30°04' W 093°16'0 0.0
2018-Jun-10 19:00N 30°04' W 093°16'0 0.0
2018-Jun-10 18:30N 30°04' W 093°16'0 0.0
2018-Jun-10 18:00N 30°04' W 093°16'0 0.0
2018-Jun-10 17:31N 30°04' W 093°16'0 0.0
2018-Jun-10 17:00N 30°04' W 093°16'0 0.0
2018-Jun-10 16:30N 30°04' W 093°16'0 0.0
2018-Jun-10 16:00N 30°04' W 093°16'1 1.9
2018-Jun-10 15:30N 30°03' W 093°16'0 0.2
2018-Jun-10 15:00N 30°03' W 093°16'0 0.4
2018-Jun-10 14:00N 30°03' W 093°16'1 2.0
2018-Jun-10 13:30N 30°02' W 093°15'1 2.6
2018-Jun-10 13:00N 30°01' W 093°14'2 3.2
2018-Jun-10 12:30N 29°60' W 093°13'1 2.5
2018-Jun-10 11:55N 29°58' W 093°12'0 0.7
2018-Jun-10 11:30N 29°58' W 093°12'1 2.4
2018-Jun-10 10:59N 29°57' W 093°11'1 1.8
2018-Jun-10 10:30N 29°57' W 093°10'0 0.3
2018-Jun-10 09:57N 29°56' W 093°10'0 0.3
2018-Jun-10 09:29N 29°56' W 093°10'0 0.1
2018-Jun-10 08:54N 29°56' W 093°10'0 0.0
2018-Jun-10 06:36N 29°56' W 093°10'0 0.3
2018-Jun-10 06:30N 29°56' W 093°10'0 0.4
2018-Jun-10 05:59N 29°56' W 093°10'1 1.3
2018-Jun-10 05:30N 29°56' W 093°09'0 0.0
2018-Jun-10 05:00N 29°56' W 093°09'1 2.0
2018-Jun-10 04:30N 29°56' W 093°08'2 3.3
2018-Jun-10 04:00N 29°56' W 093°06'2 4.1
2018-Jun-10 03:28N 29°56' W 093°03'32 2.5
2018-Jun-09 14:50N 29°53' W 092°27'2 4.7
2018-Jun-09 14:30N 29°53' W 092°25'2 4.5
2018-Jun-09 13:58N 29°52' W 092°22'2 4.1
2018-Jun-09 13:30N 29°51' W 092°21'2 4.6
2018-Jun-09 13:00N 29°50' W 092°18'2 4.5
2018-Jun-09 12:30N 29°49' W 092°16'2 5.1
2018-Jun-09 12:00N 29°48' W 092°14'1 2.8
2018-Jun-09 11:30N 29°47' W 092°12'1 2.4
2018-Jun-09 11:00N 29°47' W 092°11'0 0.0
2018-Jun-09 10:30N 29°47' W 092°11'1 1.4
2018-Jun-09 10:00N 29°47' W 092°10'2 5.0
2018-Jun-09 09:30N 29°47' W 092°07'2 4.6
2018-Jun-09 09:00N 29°48' W 092°05'2 4.7
2018-Jun-09 08:30N 29°49' W 092°02'  

Dump ship's entire track history